DW0602 Weather Reports


Display with metric or nautical units.
time (UTC)temp
F
wind
direction
speed
MPH
gust
MPH
rain 1hr
in
rain 24hr
in
rain mn
in
humidity
%
barometer
mb
20240614081536 60 38 1.0 3.0 0.00 0.00 0.00 71 1024.6
20240614081029 60 46 1.0 3.0 0.00 0.00 0.00 71 1024.6
20240614080523 60 33 0.0 2.0 0.00 0.00 0.00 70 1024.7
20240614075511 61 27 0.0 1.0 0.00 0.00 0.00 68 1024.8
20240614074459 61 23 0.0 2.0 0.00 0.00 0.00 67 1024.9
20240614073953 62 18 0.0 2.0 0.00 0.00 0.00 66 1024.9
20240614073448 62 1 0.0 2.0 0.00 0.00 0.00 66 1025.1
20240614072435 62 23 1.0 2.0 0.00 0.00 0.00 64 1025.2
20240614071931 62 23 1.0 2.0 0.00 0.00 0.00 64 1025.2
20240614071424 62 105 1.0 2.0 0.00 0.00 0.00 64 1025.1
20240614070413 62 97 0.0 2.0 0.00 0.00 0.00 64 1025.1
20240614065359 63 148 0.0 1.0 0.00 0.00 0.00 61 1025.1
20240614064853 63 148 1.0 2.0 0.00 0.00 0.00 61 1025.1
20240614064349 63 148 1.0 2.0 0.00 0.00 0.00 61 1025.2
20240614063842 63 171 0.0 2.0 0.00 0.00 0.00 61 1025.2
20240614063337 63 171 0.0 1.0 0.00 0.00 0.00 60 1025.3
20240614062829 64 171 0.0 1.0 0.00 0.00 0.00 60 1025.3
20240614062323 64 171 0.0 1.0 0.00 0.00 0.00 58 1025.3
20240614061817 65 171 0.0 1.0 0.00 0.00 0.00 57 1025.3
20240614061311 66 175 0.0 2.0 0.00 0.00 0.00 57 1025.3
20240614060259 66 175 1.0 2.0 0.00 0.00 0.00 54 1025.3
20240614055247 67 124 1.0 3.0 0.00 0.00 0.00 54 1025.2
20240614054741 66 101 1.0 2.0 0.00 0.00 0.00 54 1025.2
20240614054235 66 54 0.0 2.0 0.00 0.00 0.00 55 1025.2
20240614053729 67 33 1.0 2.0 0.00 0.00 0.00 55 1025.1
20240614052724 67 82 2.0 3.0 0.00 0.00 0.00 56 1025.2
20240614052222 67 72 2.0 6.0 0.00 0.00 0.00 57 1025.2
20240614051725 67 82 1.0 6.0 0.00 0.00 0.00 59 1025.2
20240614051221 67 106 1.0 3.0 0.00 0.00 0.00 58 1025.2
20240614050222 68 157 0.0 1.0 0.00 0.00 0.00 57 1025.4
20240614045720 68 157 0.0 2.0 0.00 0.00 0.00 56 1025.6
20240614045218 69 157 1.0 4.0 0.00 0.00 0.00 56 1025.6
20240614044720 69 153 2.0 4.0 0.00 0.00 0.00 56 1025.7
20240614044221 69 135 2.0 4.0 0.00 0.00 0.00 56 1025.7
20240614043720 69 125 3.0 6.0 0.00 0.00 0.00 56 1025.7
20240614043217 69 150 3.0 6.0 0.00 0.00 0.00 56 1025.7
20240614042717 69 140 2.0 5.0 0.00 0.00 0.00 56 1025.8
20240614042217 69 169 2.0 5.0 0.00 0.00 0.00 56 1025.8
20240614040717 70 139 3.0 6.0 0.00 0.00 0.00 55 1025.7
20240614040216 71 101 4.0 11.0 0.00 0.00 0.00 54 1025.6
20240614035716 71 68 5.0 11.0 0.00 0.00 0.00 54 1025.3
20240614035216 71 122 5.0 10.0 0.00 0.00 0.00 53 1025.1
20240614034711 71 57 7.0 16.0 0.00 0.00 0.00 51 1024.7
20240614034212 72 102 8.0 20.0 0.00 0.00 0.00 51 1024.5
20240614033711 72 111 7.0 20.0 0.00 0.00 0.00 50 1024.5
20240614033211 72 50 6.0 12.0 0.00 0.00 0.00 51 1024.2
20240614032210 72 58 5.0 13.0 0.00 0.00 0.00 49 1024.1
20240614031711 73 75 5.0 10.0 0.00 0.00 0.00 46 1023.8
20240614031211 74 75 6.0 10.0 0.00 0.00 0.00 43 1023.7
20240614030711 74 60 6.0 14.0 0.00 0.00 0.00 43 1023.6
20240614030208 74 85 7.0 19.0 0.00 0.00 0.00 43 1023.5
20240614025208 75 130 5.0 18.0 0.00 0.00 0.00 40 1023.6
20240614024707 75 129 7.0 12.0 0.00 0.00 0.00 39 1023.4
20240614024206 75 84 8.0 14.0 0.00 0.00 0.00 38 1023.0
20240614023708 76 90 8.0 14.0 0.00 0.00 0.00 37 1022.7
20240614023207 76 101 8.0 14.0 0.00 0.00 0.00 35 1022.6
20240614022707 77 56 10.0 19.0 0.00 0.00 0.00 32 1022.4
20240614022208 78 79 7.0 19.0 0.00 0.00 0.00 28 1022.3
20240614021203 78 72 4.0 9.0 0.00 0.00 0.00 29 1021.9
20240614020704 78 105 5.0 10.0 0.00 0.00 0.00 29 1021.9
20240614020202 78 65 6.0 15.0 0.00 0.00 0.00 27 1021.7
20240614015202 81 52 1.0 11.0 0.00 0.00 0.00 23 1021.3
20240614014704 82 30 0.0 1.0 0.00 0.00 0.00 20 1020.9
20240614014204 82 44 0.0 2.0 0.00 0.00 0.00 20 1020.7
20240614013704 83 23 1.0 3.0 0.00 0.00 0.00 20 1020.6
20240614013202 84 22 1.0 3.0 0.00 0.00 0.00 19 1020.4
20240614012704 85 10 1.0 7.0 0.00 0.00 0.00 15 1020.4
20240614012202 86 16 1.0 7.0 0.00 0.00 0.00 16 1020.3
20240614011701 87 13 1.0 5.0 0.00 0.00 0.00 14 1020.3
20240614011201 87 319 2.0 5.0 0.00 0.00 0.00 14 1020.3
20240614010659 87 359 1.0 5.0 0.00 0.00 0.00 14 1020.3
20240614010158 87 334 1.0 5.0 0.00 0.00 0.00 14 1020.2
20240614005151 88 39 2.0 5.0 0.00 0.00 0.00 14 1020.2
20240614003633 88 15 1.0 3.0 0.00 0.00 0.00 13 1020.3
20240614003127 88 314 1.0 4.0 0.00 0.00 0.00 15 1020.3
20240614002620 88 0 1.0 4.0 0.00 0.00 0.00 13 1020.3
20240614002115 88 345 2.0 5.0 0.00 0.00 0.00 15 1020.4
20240614001102 87 290 2.0 5.0 0.00 0.00 0.00 13 1020.6
20240614000058 87 261 1.0 3.0 0.00 0.00 0.00 12 1020.6
20240613234555 85 314 1.0 5.0 0.00 0.00 0.00 17 1020.7
20240613234053 85 259 1.0 5.0 0.00 0.00 0.00 14 1020.7
20240613233552 85 281 1.0 5.0 0.00 0.00 0.00 17 1020.7
20240613233054 85 105 2.0 6.0 0.00 0.00 0.00 16 1020.6
20240613232554 85 203 3.0 7.0 0.00 0.00 0.00 15 1020.7
20240613232051 85 78 4.0 10.0 0.00 0.00 0.00 20 1020.7
20240613231552 85 149 6.0 21.0 0.00 0.00 0.00 13 1021.4
20240613231051 85 283 7.0 21.0 0.00 0.00 0.00 15 1021.3
20240613230050 84 233 8.0 22.0 0.00 0.00 0.00 14 1021.7
20240613225551 84 295 6.0 22.0 0.00 0.00 0.00 13 1021.8
20240613225050 84 293 4.0 11.0 0.00 0.00 0.00 14 1021.7
20240613224550 84 311 5.0 12.0 0.00 0.00 0.00 15 1021.3
20240613224051 83 85 5.0 13.0 0.00 0.00 0.00 15 1021.2
20240613223546 83 108 8.0 22.0 0.00 0.00 0.00 16 1021.4
20240613223039 83 84 7.0 22.0 0.00 0.00 0.00 17 1022.0
20240613222027 82 348 3.0 10.0 0.00 0.00 0.00 19 1021.5
20240613221521 82 10 4.0 9.0 0.00 0.00 0.00 19 1021.4
20240613221015 82 42 5.0 9.0 0.00 0.00 0.00 20 1021.3
20240613220509 83 49 3.0 9.0 0.00 0.00 0.00 18 1021.3
20240613220002 83 91 2.0 7.0 0.00 0.00 0.00 19 1021.3
20240613215456 84 45 3.0 14.0 0.00 0.00 0.00 16 1021.3
20240613214949 84 3 2.0 14.0 0.00 0.00 0.00 15 1021.3
20240613214443 84 25 2.0 7.0 0.00 0.00 0.00 16 1021.3
20240613213937 83 1 3.0 9.0 0.00 0.00 0.00 16 1021.2
20240613212925 83 56 4.0 13.0 0.00 0.00 0.00 18 1020.9
20240613211914 83 60 4.0 11.0 0.00 0.00 0.00 20 1020.9
20240613211407 84 62 3.0 11.0 0.00 0.00 0.00 17 1021.0
20240613210902 85 53 3.0 9.0 0.00 0.00 0.00 19 1021.0
20240613205849 86 71 4.0 12.0 0.00 0.00 0.00 19 1021.2
20240613205343 87 82 5.0 12.0 0.00 0.00 0.00 17 1021.0
20240613204837 89 79 4.0 11.0 0.00 0.00 0.00 13 1020.9
20240613204333 91 165 4.0 11.0 0.00 0.00 0.00 12 1021.0
20240613203826 92 231 3.0 11.0 0.00 0.00 0.00 11 1020.9
20240613203320 93 148 3.0 6.0 0.00 0.00 0.00 13 1020.9
20240613202813 92 246 4.0 11.0 0.00 0.00 0.00 12 1020.9
20240613202307 92 120 3.0 11.0 0.00 0.00 0.00 13 1020.9
20240613201801 94 136 3.0 6.0 0.00 0.00 0.00 9 1020.9
20240613201257 94 172 4.0 9.0 0.00 0.00 0.00 10 1021.2
20240613200749 94 120 3.0 10.0 0.00 0.00 0.00 10 1021.2
20240613200243 94 261 2.0 10.0 0.00 0.00 0.00 9 1021.3
20240613195737 94 251 3.0 9.0 0.00 0.00 0.00 7 1021.3
20240613195231 94 194 3.0 9.0 0.00 0.00 0.00 12 1021.2
20240613194724 93 184 3.0 7.0 0.00 0.00 0.00 10 1021.3
20240613194225 94 324 3.0 7.0 0.00 0.00 0.00 8 1021.3
20240613193725 94 281 3.0 7.0 0.00 0.00 0.00 10 1021.4
20240613193226 93 317 4.0 9.0 0.00 0.00 0.00 13 1021.4
20240613192726 93 238 4.0 9.0 0.00 0.00 0.00 9 1021.5
20240613192224 93 203 4.0 11.0 0.00 0.00 0.00 11 1021.5
20240613191725 93 261 4.0 11.0 0.00 0.00 0.00 9 1021.7
20240613191226 93 216 3.0 9.0 0.00 0.00 0.00 9 1021.8
20240613190225 92 80 4.0 10.0 0.00 0.00 0.00 12 1021.8
20240613185726 92 296 5.0 13.0 0.00 0.00 0.00 9 1021.9
20240613185226 92 284 5.0 13.0 0.00 0.00 0.00 9 1021.9
20240613184222 93 276 4.0 10.0 0.00 0.00 0.00 9 1021.9
20240613183222 91 272 5.0 11.0 0.00 0.00 0.00 10 1021.9
20240613182722 91 278 5.0 11.0 0.00 0.00 0.00 11 1021.9
20240613181719 91 321 4.0 11.0 0.00 0.00 0.00 11 1022.0
20240613181213 91 265 6.0 13.0 0.00 0.00 0.00 11 1022.0
20240613180706 90 267 7.0 14.0 0.00 0.00 0.00 10 1022.0
20240613180202 91 297 6.0 17.0 0.00 0.00 0.00 10 1022.0
20240613175654 91 274 4.0 17.0 0.00 0.00 0.00 9 1022.1
20240613175149 91 281 5.0 13.0 0.00 0.00 0.00 11 1022.1
20240613174643 91 112 5.0 13.0 0.00 0.00 0.00 9 1022.0
20240613174137 91 272 4.0 13.0 0.00 0.00 0.00 11 1021.9
20240613173630 91 169 3.0 13.0 0.00 0.00 0.00 10 1022.1
20240613173129 91 238 4.0 13.0 0.00 0.00 0.00 10 1022.1
20240613172627 90 302 4.0 11.0 0.00 0.00 0.00 10 1022.1
20240613171628 90 222 5.0 14.0 0.00 0.00 0.00 10 1022.3
20240613171124 91 327 3.0 14.0 0.00 0.00 0.00 10 1022.1
20240613170624 91 256 3.0 10.0 0.00 0.00 0.00 13 1022.3
20240613170125 91 0 3.0 11.0 0.00 0.00 0.00 17 1022.4
20240613165623 90 265 3.0 11.0 0.00 0.00 0.00 13 1022.3
20240613165122 90 334 3.0 10.0 0.00 0.00 0.00 15 1022.3
20240613164624 90 269 3.0 10.0 0.00 0.00 0.00 13 1022.3
20240613164122 91 274 3.0 9.0 0.00 0.00 0.00 13 1022.3
20240613163124 89 188 2.0 7.0 0.00 0.00 0.00 13 1022.0
20240613162621 90 282 3.0 10.0 0.00 0.00 0.00 12 1022.0
20240613162122 89 289 3.0 10.0 0.00 0.00 0.00 13 1022.0
20240613161623 90 192 2.0 6.0 0.00 0.00 0.00 15 1022.1
20240613161123 89 200 2.0 6.0 0.00 0.00 0.00 15 1022.1
20240613160616 88 194 2.0 7.0 0.00 0.00 0.00 19 1022.0
20240613160112 87 205 3.0 7.0 0.00 0.00 0.00 17 1022.0
20240613155100 87 148 2.0 6.0 0.00 0.00 0.00 25 1022.0
20240613154552 87 127 2.0 4.0 0.00 0.00 0.00 25 1022.0
20240613154047 87 158 2.0 5.0 0.00 0.00 0.00 24 1022.1
20240613153540 86 174 2.0 5.0 0.00 0.00 0.00 26 1022.1
20240613153034 86 135 2.0 4.0 0.00 0.00 0.00 26 1022.1
20240613152023 85 151 1.0 3.0 0.00 0.00 0.00 25 1022.3
20240613151518 84 136 1.0 3.0 0.00 0.00 0.00 25 1022.3
20240613151017 84 108 1.0 3.0 0.00 0.00 0.00 23 1022.3
20240613150517 83 91 2.0 3.0 0.00 0.00 0.00 27 1022.3
20240613150015 82 77 2.0 3.0 0.00 0.00 0.00 33 1022.3
20240613145518 82 100 1.0 3.0 0.00 0.00 0.00 32 1022.3
20240613145017 82 51 1.0 2.0 0.00 0.00 0.00 32 1022.3
20240613144016 81 51 1.0 4.0 0.00 0.00 0.00 32 1022.3
20240613143516 80 69 1.0 2.0 0.00 0.00 0.00 33 1022.3
20240613143015 80 73 1.0 3.0 0.00 0.00 0.00 35 1022.3
20240613142517 79 41 1.0 3.0 0.00 0.00 0.00 37 1022.3
20240613142013 79 34 1.0 3.0 0.00 0.00 0.00 38 1022.3
20240613141514 79 42 1.0 3.0 0.00 0.00 0.00 35 1022.1
20240613141012 78 51 1.0 3.0 0.00 0.00 0.00 37 1022.1
20240613135513 75 39 1.0 3.0 0.00 0.00 0.00 42 1022.0
20240613135013 74 37 1.0 3.0 0.00 0.00 0.00 47 1022.0
20240613134513 73 53 1.0 3.0 0.00 0.00 0.00 50 1022.0
20240613134014 72 41 1.0 3.0 0.00 0.00 0.00 49 1022.0
20240613133508 72 71 1.0 2.0 0.00 0.00 0.00 55 1021.9
20240613133007 71 79 0.0 2.0 0.00 0.00 0.00 54 1021.9
20240613132508 69 32 0.0 2.0 0.00 0.00 0.00 55 1021.9
20240613132008 68 32 0.0 1.0 0.00 0.00 0.00 56 1021.9
20240613131508 67 32 0.0 1.0 0.00 0.00 0.00 60 1021.8
20240613131007 65 32 0.0 2.0 0.00 0.00 0.00 60 1021.7
20240613130508 64 32 1.0 2.0 0.00 0.00 0.00 64 1021.7
20240613130008 63 32 1.0 2.0 0.00 0.00 0.00 63 1021.7
20240613125509 62 41 1.0 2.0 0.00 0.00 0.00 64 1021.7
20240613125009 61 348 0.0 2.0 0.00 0.00 0.00 63 1021.5
20240613124508 60 348 1.0 2.0 0.00 0.00 0.00 62 1021.5
20240613124009 59 23 1.0 2.0 0.00 0.00 0.00 66 1021.5
20240613123509 58 23 1.0 2.0 0.00 0.00 0.00 67 1021.5
20240613123008 57 23 0.0 2.0 0.00 0.00 0.00 65 1021.4
20240613122508 56 23 0.0 2.0 0.00 0.00 0.00 64 1021.4
20240613122007 56 23 1.0 2.0 0.00 0.00 0.00 64 1021.4
20240613121509 56 23 0.0 2.0 0.00 0.00 0.00 63 1021.4
20240613121010 56 23 0.0 2.0 0.00 0.00 0.00 62 1021.4
20240613120504 56 359 0.0 2.0 0.00 0.00 0.00 62 1021.4
20240613115957 56 359 0.0 2.0 0.00 0.00 0.00 61 1021.4
20240613115452 55 0 0.0 2.0 0.00 0.00 0.00 62 1021.4
20240613114945 55 22 0.0 1.0 0.00 0.00 0.00 63 1021.3
20240613113935 55 22 0.0 1.0 0.00 0.00 0.00 63 1021.0
20240613113434 55 22 0.0 1.0 0.00 0.00 0.00 64 1021.2
20240613112930 55 22 0.0 1.0 0.00 0.00 0.00 64 1021.2
20240613112427 55 5 0.0 1.0 0.00 0.00 0.00 64 1021.0
20240613111929 54 5 0.0 1.0 0.00 0.00 0.00 66 1021.2
20240613111429 54 5 0.0 2.0 0.00 0.00 0.00 65 1021.0
20240613110927 54 5 0.0 2.0 0.00 0.00 0.00 67 1021.0
20240613110423 53 13 0.0 1.0 0.00 0.00 0.00 68 1021.0
20240613105924 53 13 0.0 1.0 0.00 0.00 0.00 67 1021.0
20240613105425 53 13 0.0 1.0 0.00 0.00 0.00 66 1020.9
20240613104922 53 13 0.0 1.0 0.00 0.00 0.00 67 1020.9
20240613104421 53 13 0.0 1.0 0.00 0.00 0.00 66 1020.9
20240613103920 54 13 0.0 1.0 0.00 0.00 0.00 66 1020.9
20240613103420 54 13 0.0 1.0 0.00 0.00 0.00 66 1020.9
20240613102918 54 13 0.0 1.0 0.00 0.00 0.00 65 1020.8
20240613102416 54 13 0.0 2.0 0.00 0.00 0.00 65 1020.8
20240613101917 54 13 0.0 2.0 0.00 0.00 0.00 65 1020.8
20240613100919 55 13 0.0 1.0 0.00 0.00 0.00 64 1020.9
20240613100416 55 13 0.0 1.0 0.00 0.00 0.00 63 1020.7
20240613095910 55 13 0.0 1.0 0.00 0.00 0.00 62 1020.8
20240613095404 55 15 0.0 1.0 0.00 0.00 0.00 61 1020.8
20240613094858 55 15 0.0 1.0 0.00 0.00 0.00 61 1020.9
20240613094351 55 15 0.0 1.0 0.00 0.00 0.00 62 1020.9
20240613093846 56 15 0.0 1.0 0.00 0.00 0.00 61 1020.9
20240613092327 56 15 0.0 1.0 0.00 0.00 0.00 60 1020.9
20240613091822 56 15 0.0 2.0 0.00 0.00 0.00 61 1021.0
20240613091317 56 15 0.0 2.0 0.00 0.00 0.00 60 1021.0
20240613090810 56 13 0.0 2.0 0.00 0.00 0.00 61 1021.0
20240613090304 56 37 0.0 2.0 0.00 0.00 0.00 62 1021.0
20240613085758 56 31 0.0 1.0 0.00 0.00 0.00 63 1020.9
20240613085251 56 67 0.0 1.0 0.00 0.00 0.00 63 1020.9
20240613084747 56 67 0.0 1.0 0.00 0.00 0.00 63 1021.0
20240613083734 56 67 0.0 2.0 0.00 0.00 0.00 64 1021.0
20240613083230 56 67 0.0 1.0 0.00 0.00 0.00 63 1021.0
20240613082216 57 67 0.0 1.0 0.00 0.00 0.00 62 1021.0